sensor_id;sensor_type;location;lat;lon;timestamp;temperature;humidity
72952;HTU21D;61102;51.956;5.878;2023-05-27T00:01:19;13.80;51.13
72952;HTU21D;61102;51.956;5.878;2023-05-27T00:03:46;13.79;51.43
72952;HTU21D;61102;51.956;5.878;2023-05-27T00:06:12;13.77;51.41
72952;HTU21D;61102;51.956;5.878;2023-05-27T00:08:38;13.76;51.70
72952;HTU21D;61102;51.956;5.878;2023-05-27T00:11:04;13.74;51.66
72952;HTU21D;61102;51.956;5.878;2023-05-27T00:13:31;13.73;51.63
72952;HTU21D;61102;51.956;5.878;2023-05-27T00:15:57;13.70;51.60
72952;HTU21D;61102;51.956;5.878;2023-05-27T00:18:23;13.70;51.62
72952;HTU21D;61102;51.956;5.878;2023-05-27T00:20:49;13.68;51.65
72952;HTU21D;61102;51.956;5.878;2023-05-27T00:23:22;13.67;51.99
72952;HTU21D;61102;51.956;5.878;2023-05-27T00:25:48;13.67;52.00
72952;HTU21D;61102;51.956;5.878;2023-05-27T00:28:14;13.64;52.08
72952;HTU21D;61102;51.956;5.878;2023-05-27T00:30:41;13.62;51.94
72952;HTU21D;61102;51.956;5.878;2023-05-27T00:33:08;13.58;52.43
72952;HTU21D;61102;51.956;5.878;2023-05-27T00:35:34;13.62;52.44
72952;HTU21D;61102;51.956;5.878;2023-05-27T00:38:00;13.58;52.38
72952;HTU21D;61102;51.956;5.878;2023-05-27T00:40:29;13.55;52.46
72952;HTU21D;61102;51.956;5.878;2023-05-27T00:42:56;13.53;52.39
72952;HTU21D;61102;51.956;5.878;2023-05-27T00:45:25;13.51;52.57
72952;HTU21D;61102;51.956;5.878;2023-05-27T00:47:52;13.47;52.58
72952;HTU21D;61102;51.956;5.878;2023-05-27T00:50:19;13.45;52.71
72952;HTU21D;61102;51.956;5.878;2023-05-27T00:52:45;13.44;52.63
72952;HTU21D;61102;51.956;5.878;2023-05-27T00:55:21;13.41;52.75
72952;HTU21D;61102;51.956;5.878;2023-05-27T00:57:50;13.40;52.63
72952;HTU21D;61102;51.956;5.878;2023-05-27T01:00:22;13.39;52.53
72952;HTU21D;61102;51.956;5.878;2023-05-27T01:02:52;13.36;52.88
72952;HTU21D;61102;51.956;5.878;2023-05-27T01:05:18;13.33;52.97
72952;HTU21D;61102;51.956;5.878;2023-05-27T01:10:52;13.34;53.12
72952;HTU21D;61102;51.956;5.878;2023-05-27T01:13:46;13.32;53.09
72952;HTU21D;61102;51.956;5.878;2023-05-27T01:16:17;13.25;53.08
72952;HTU21D;61102;51.956;5.878;2023-05-27T01:18:48;13.20;53.33
72952;HTU21D;61102;51.956;5.878;2023-05-27T01:21:16;13.19;53.47
72952;HTU21D;61102;51.956;5.878;2023-05-27T01:23:43;13.17;53.40
72952;HTU21D;61102;51.956;5.878;2023-05-27T01:26:12;13.16;53.62
72952;HTU21D;61102;51.956;5.878;2023-05-27T01:28:39;13.16;53.91
72952;HTU21D;61102;51.956;5.878;2023-05-27T01:31:12;13.10;54.04
72952;HTU21D;61102;51.956;5.878;2023-05-27T01:33:42;13.07;53.91
72952;HTU21D;61102;51.956;5.878;2023-05-27T01:36:18;13.08;53.98
72952;HTU21D;61102;51.956;5.878;2023-05-27T01:38:47;13.08;53.92
72952;HTU21D;61102;51.956;5.878;2023-05-27T01:41:18;13.03;53.96
72952;HTU21D;61102;51.956;5.878;2023-05-27T01:43:44;13.04;54.17
72952;HTU21D;61102;51.956;5.878;2023-05-27T01:46:11;13.01;54.32
72952;HTU21D;61102;51.956;5.878;2023-05-27T01:48:41;12.97;54.35
72952;HTU21D;61102;51.956;5.878;2023-05-27T01:51:11;12.94;54.48
72952;HTU21D;61102;51.956;5.878;2023-05-27T01:53:44;12.94;54.46
72952;HTU21D;61102;51.956;5.878;2023-05-27T01:56:14;12.95;54.26
72952;HTU21D;61102;51.956;5.878;2023-05-27T01:58:44;12.92;54.20
72952;HTU21D;61102;51.956;5.878;2023-05-27T02:01:10;12.90;54.39
72952;HTU21D;61102;51.956;5.878;2023-05-27T02:03:43;12.88;54.54
72952;HTU21D;61102;51.956;5.878;2023-05-27T02:06:09;12.87;54.35
72952;HTU21D;61102;51.956;5.878;2023-05-27T02:08:37;12.84;54.55
72952;HTU21D;61102;51.956;5.878;2023-05-27T02:11:07;12.85;54.55
72952;HTU21D;61102;51.956;5.878;2023-05-27T02:13:38;12.84;54.73
72952;HTU21D;61102;51.956;5.878;2023-05-27T02:16:05;12.80;54.66
72952;HTU21D;61102;51.956;5.878;2023-05-27T02:18:36;12.78;54.81
72952;HTU21D;61102;51.956;5.878;2023-05-27T02:21:06;12.78;55.11
72952;HTU21D;61102;51.956;5.878;2023-05-27T02:23:35;12.77;54.81
72952;HTU21D;61102;51.956;5.878;2023-05-27T02:26:02;12.75;54.87
72952;HTU21D;61102;51.956;5.878;2023-05-27T02:28:28;12.73;55.00
72952;HTU21D;61102;51.956;5.878;2023-05-27T02:30:56;12.71;55.25
72952;HTU21D;61102;51.956;5.878;2023-05-27T02:33:22;12.70;55.18
72952;HTU21D;61102;51.956;5.878;2023-05-27T02:35:54;12.70;55.39
72952;HTU21D;61102;51.956;5.878;2023-05-27T02:38:20;12.66;55.18
72952;HTU21D;61102;51.956;5.878;2023-05-27T02:40:49;12.64;55.20
72952;HTU21D;61102;51.956;5.878;2023-05-27T02:43:15;12.61;55.28
72952;HTU21D;61102;51.956;5.878;2023-05-27T02:45:42;12.59;55.33
72952;HTU21D;61102;51.956;5.878;2023-05-27T02:48:12;12.58;55.42
72952;HTU21D;61102;51.956;5.878;2023-05-27T02:50:42;12.56;55.56
72952;HTU21D;61102;51.956;5.878;2023-05-27T02:53:11;12.55;55.38
72952;HTU21D;61102;51.956;5.878;2023-05-27T02:55:38;12.51;55.56
72952;HTU21D;61102;51.956;5.878;2023-05-27T02:58:07;12.52;55.52
72952;HTU21D;61102;51.956;5.878;2023-05-27T03:00:34;12.49;55.65
72952;HTU21D;61102;51.956;5.878;2023-05-27T03:03:00;12.47;55.72
72952;HTU21D;61102;51.956;5.878;2023-05-27T03:05:34;12.46;55.67
72952;HTU21D;61102;51.956;5.878;2023-05-27T03:08:01;12.46;55.58
72952;HTU21D;61102;51.956;5.878;2023-05-27T03:10:28;12.46;55.73
72952;HTU21D;61102;51.956;5.878;2023-05-27T03:12:54;12.45;55.93
72952;HTU21D;61102;51.956;5.878;2023-05-27T03:15:23;12.42;56.05
72952;HTU21D;61102;51.956;5.878;2023-05-27T03:17:49;12.41;55.91
72952;HTU21D;61102;51.956;5.878;2023-05-27T03:20:18;12.38;56.04
72952;HTU21D;61102;51.956;5.878;2023-05-27T03:22:51;12.38;56.02
72952;HTU21D;61102;51.956;5.878;2023-05-27T03:25:17;12.37;55.87
72952;HTU21D;61102;51.956;5.878;2023-05-27T03:27:44;12.36;55.92
72952;HTU21D;61102;51.956;5.878;2023-05-27T03:30:14;12.36;55.96
72952;HTU21D;61102;51.956;5.878;2023-05-27T03:32:46;12.36;55.91
72952;HTU21D;61102;51.956;5.878;2023-05-27T03:35:15;12.34;55.97
72952;HTU21D;61102;51.956;5.878;2023-05-27T03:37:45;12.34;55.94
72952;HTU21D;61102;51.956;5.878;2023-05-27T03:40:12;12.34;55.94
72952;HTU21D;61102;51.956;5.878;2023-05-27T03:42:41;12.34;56.09
72952;HTU21D;61102;51.956;5.878;2023-05-27T03:45:08;12.36;55.84
72952;HTU21D;61102;51.956;5.878;2023-05-27T03:47:35;12.81;54.60
72952;HTU21D;61102;51.956;5.878;2023-05-27T03:50:04;12.51;55.35
72952;HTU21D;61102;51.956;5.878;2023-05-27T03:52:33;12.42;55.71
72952;HTU21D;61102;51.956;5.878;2023-05-27T03:55:01;12.40;56.03
72952;HTU21D;61102;51.956;5.878;2023-05-27T03:57:27;12.36;56.07
72952;HTU21D;61102;51.956;5.878;2023-05-27T03:59:53;12.36;56.02
72952;HTU21D;61102;51.956;5.878;2023-05-27T04:02:20;12.40;56.02
72952;HTU21D;61102;51.956;5.878;2023-05-27T04:04:46;12.42;56.19
72952;HTU21D;61102;51.956;5.878;2023-05-27T04:07:15;12.41;56.03
72952;HTU21D;61102;51.956;5.878;2023-05-27T04:09:44;12.43;56.01
72952;HTU21D;61102;51.956;5.878;2023-05-27T04:12:13;12.46;56.16
72952;HTU21D;61102;51.956;5.878;2023-05-27T04:14:43;12.48;56.04
72952;HTU21D;61102;51.956;5.878;2023-05-27T04:17:12;12.51;55.91
72952;HTU21D;61102;51.956;5.878;2023-05-27T04:19:39;12.53;56.05
72952;HTU21D;61102;51.956;5.878;2023-05-27T04:22:05;12.58;56.00
72952;HTU21D;61102;51.956;5.878;2023-05-27T04:24:37;12.64;55.99
72952;HTU21D;61102;51.956;5.878;2023-05-27T04:27:05;12.72;55.84
72952;HTU21D;61102;51.956;5.878;2023-05-27T04:29:35;12.75;55.78
72952;HTU21D;61102;51.956;5.878;2023-05-27T04:32:07;12.81;55.87
72952;HTU21D;61102;51.956;5.878;2023-05-27T04:34:33;12.90;55.55
72952;HTU21D;61102;51.956;5.878;2023-05-27T04:37:01;13.00;55.47
72952;HTU21D;61102;51.956;5.878;2023-05-27T04:39:31;13.11;55.21
72952;HTU21D;61102;51.956;5.878;2023-05-27T04:41:58;13.20;55.08
72952;HTU21D;61102;51.956;5.878;2023-05-27T04:44:29;13.30;54.99
72952;HTU21D;61102;51.956;5.878;2023-05-27T04:46:58;13.38;54.85
72952;HTU21D;61102;51.956;5.878;2023-05-27T04:49:27;13.47;54.72
72952;HTU21D;61102;51.956;5.878;2023-05-27T04:51:56;13.62;54.50
72952;HTU21D;61102;51.956;5.878;2023-05-27T04:54:26;13.75;54.31
72952;HTU21D;61102;51.956;5.878;2023-05-27T04:56:57;13.82;54.33
72952;HTU21D;61102;51.956;5.878;2023-05-27T04:59:28;13.96;53.97
72952;HTU21D;61102;51.956;5.878;2023-05-27T05:02:36;14.15;53.65
72952;HTU21D;61102;51.956;5.878;2023-05-27T05:05:19;14.25;53.43
72952;HTU21D;61102;51.956;5.878;2023-05-27T05:07:48;14.25;53.44
72952;HTU21D;61102;51.956;5.878;2023-05-27T05:10:15;14.36;53.36
72952;HTU21D;61102;51.956;5.878;2023-05-27T05:12:47;14.47;53.22
72952;HTU21D;61102;51.956;5.878;2023-05-27T05:15:14;14.55;53.20
72952;HTU21D;61102;51.956;5.878;2023-05-27T05:17:41;14.67;52.98
72952;HTU21D;61102;51.956;5.878;2023-05-27T05:20:07;14.81;52.85
72952;HTU21D;61102;51.956;5.878;2023-05-27T05:22:36;14.96;52.69
72952;HTU21D;61102;51.956;5.878;2023-05-27T05:25:03;15.07;52.49
72952;HTU21D;61102;51.956;5.878;2023-05-27T05:27:36;15.14;52.33
72952;HTU21D;61102;51.956;5.878;2023-05-27T05:30:04;15.17;52.31
72952;HTU21D;61102;51.956;5.878;2023-05-27T05:32:31;15.22;52.20
72952;HTU21D;61102;51.956;5.878;2023-05-27T05:34:57;15.27;52.13
72952;HTU21D;61102;51.956;5.878;2023-05-27T05:37:24;15.34;52.01
72952;HTU21D;61102;51.956;5.878;2023-05-27T05:39:53;15.43;51.90
72952;HTU21D;61102;51.956;5.878;2023-05-27T05:42:19;15.49;51.72
72952;HTU21D;61102;51.956;5.878;2023-05-27T05:44:46;15.58;51.72
72952;HTU21D;61102;51.956;5.878;2023-05-27T05:47:13;16.17;50.29
72952;HTU21D;61102;51.956;5.878;2023-05-27T05:49:40;16.32;49.78
72952;HTU21D;61102;51.956;5.878;2023-05-27T05:52:09;16.00;50.76
72952;HTU21D;61102;51.956;5.878;2023-05-27T05:54:36;16.02;50.98
72952;HTU21D;61102;51.956;5.878;2023-05-27T05:57:02;16.10;50.87
72952;HTU21D;61102;51.956;5.878;2023-05-27T05:59:29;16.16;50.80
72952;HTU21D;61102;51.956;5.878;2023-05-27T06:01:55;16.24;50.67
72952;HTU21D;61102;51.956;5.878;2023-05-27T06:04:29;16.31;50.64
72952;HTU21D;61102;51.956;5.878;2023-05-27T06:06:55;16.34;50.36
72952;HTU21D;61102;51.956;5.878;2023-05-27T06:09:30;16.44;50.27
72952;HTU21D;61102;51.956;5.878;2023-05-27T06:12:00;16.54;50.12
72952;HTU21D;61102;51.956;5.878;2023-05-27T06:14:37;16.66;49.88
72952;HTU21D;61102;51.956;5.878;2023-05-27T06:17:04;16.73;49.66
72952;HTU21D;61102;51.956;5.878;2023-05-27T06:19:31;16.84;49.60
72952;HTU21D;61102;51.956;5.878;2023-05-27T06:21:58;16.98;49.50
72952;HTU21D;61102;51.956;5.878;2023-05-27T06:24:43;17.09;49.27
72952;HTU21D;61102;51.956;5.878;2023-05-27T06:27:26;17.21;48.97
72952;HTU21D;61102;51.956;5.878;2023-05-27T06:29:53;17.26;48.67
72952;HTU21D;61102;51.956;5.878;2023-05-27T06:32:39;17.35;48.50
72952;HTU21D;61102;51.956;5.878;2023-05-27T06:35:05;17.30;48.52
72952;HTU21D;61102;51.956;5.878;2023-05-27T06:37:32;17.40;48.49
72952;HTU21D;61102;51.956;5.878;2023-05-27T06:39:58;17.49;48.37
72952;HTU21D;61102;51.956;5.878;2023-05-27T06:42:24;17.63;48.22
72952;HTU21D;61102;51.956;5.878;2023-05-27T06:44:58;17.70;48.02
72952;HTU21D;61102;51.956;5.878;2023-05-27T06:47:26;17.73;47.92
72952;HTU21D;61102;51.956;5.878;2023-05-27T06:49:53;17.84;47.76
72952;HTU21D;61102;51.956;5.878;2023-05-27T06:52:20;17.97;47.54
72952;HTU21D;61102;51.956;5.878;2023-05-27T06:55:21;18.10;47.34
72952;HTU21D;61102;51.956;5.878;2023-05-27T06:58:06;18.26;47.13
72952;HTU21D;61102;51.956;5.878;2023-05-27T07:00:51;18.36;46.58
72952;HTU21D;61102;51.956;5.878;2023-05-27T07:03:30;18.41;46.63
72952;HTU21D;61102;51.956;5.878;2023-05-27T07:05:56;18.46;46.54
72952;HTU21D;61102;51.956;5.878;2023-05-27T07:08:25;18.55;46.55
72952;HTU21D;61102;51.956;5.878;2023-05-27T07:11:06;18.76;46.15
72952;HTU21D;61102;51.956;5.878;2023-05-27T07:13:32;18.87;46.02
72952;HTU21D;61102;51.956;5.878;2023-05-27T07:15:59;19.00;45.72
72952;HTU21D;61102;51.956;5.878;2023-05-27T07:18:26;19.05;45.26
72952;HTU21D;61102;51.956;5.878;2023-05-27T07:20:56;19.11;45.34
72952;HTU21D;61102;51.956;5.878;2023-05-27T07:23:22;19.23;45.22
72952;HTU21D;61102;51.956;5.878;2023-05-27T07:26:01;19.31;44.85
72952;HTU21D;61102;51.956;5.878;2023-05-27T07:28:27;19.41;44.61
72952;HTU21D;61102;51.956;5.878;2023-05-27T07:31:04;19.57;44.68
72952;HTU21D;61102;51.956;5.878;2023-05-27T07:33:35;19.71;43.87
72952;HTU21D;61102;51.956;5.878;2023-05-27T07:36:02;19.74;43.68
72952;HTU21D;61102;51.956;5.878;2023-05-27T07:38:28;19.76;43.76
72952;HTU21D;61102;51.956;5.878;2023-05-27T07:40:54;19.80;43.69
72952;HTU21D;61102;51.956;5.878;2023-05-27T07:43:22;19.85;43.68
72952;HTU21D;61102;51.956;5.878;2023-05-27T07:45:48;20.46;42.71
72952;HTU21D;61102;51.956;5.878;2023-05-27T07:48:14;20.30;43.23
72952;HTU21D;61102;51.956;5.878;2023-05-27T07:50:41;20.39;43.12
72952;HTU21D;61102;51.956;5.878;2023-05-27T07:53:15;20.49;42.75
72952;HTU21D;61102;51.956;5.878;2023-05-27T07:55:42;20.64;42.70
72952;HTU21D;61102;51.956;5.878;2023-05-27T07:58:11;20.80;42.39
72952;HTU21D;61102;51.956;5.878;2023-05-27T08:01:00;20.91;42.02
72952;HTU21D;61102;51.956;5.878;2023-05-27T08:03:27;21.00;41.41
72952;HTU21D;61102;51.956;5.878;2023-05-27T08:06:17;21.02;41.57
72952;HTU21D;61102;51.956;5.878;2023-05-27T08:08:52;21.07;41.70
72952;HTU21D;61102;51.956;5.878;2023-05-27T08:11:40;21.27;41.62
72952;HTU21D;61102;51.956;5.878;2023-05-27T08:14:24;21.40;41.23
72952;HTU21D;61102;51.956;5.878;2023-05-27T08:17:10;21.49;40.61
72952;HTU21D;61102;51.956;5.878;2023-05-27T08:19:59;21.50;40.42
72952;HTU21D;61102;51.956;5.878;2023-05-27T08:22:46;21.58;40.57
72952;HTU21D;61102;51.956;5.878;2023-05-27T08:25:31;21.72;40.67
72952;HTU21D;61102;51.956;5.878;2023-05-27T08:28:22;21.84;40.26
72952;HTU21D;61102;51.956;5.878;2023-05-27T08:31:09;21.96;39.94
72952;HTU21D;61102;51.956;5.878;2023-05-27T08:33:40;22.07;40.12
72952;HTU21D;61102;51.956;5.878;2023-05-27T08:36:07;22.24;40.07
72952;HTU21D;61102;51.956;5.878;2023-05-27T08:38:34;22.37;39.77
72952;HTU21D;61102;51.956;5.878;2023-05-27T08:41:17;22.46;39.36
72952;HTU21D;61102;51.956;5.878;2023-05-27T08:43:44;22.53;39.23
72952;HTU21D;61102;51.956;5.878;2023-05-27T08:46:13;22.58;38.93
72952;HTU21D;61102;51.956;5.878;2023-05-27T08:48:40;22.69;38.75
72952;HTU21D;61102;51.956;5.878;2023-05-27T08:51:09;22.69;38.44
72952;HTU21D;61102;51.956;5.878;2023-05-27T08:53:37;22.78;38.50
72952;HTU21D;61102;51.956;5.878;2023-05-27T08:56:05;22.79;38.01
72952;HTU21D;61102;51.956;5.878;2023-05-27T08:58:34;22.76;38.14
72952;HTU21D;61102;51.956;5.878;2023-05-27T09:01:01;22.82;38.29
72952;HTU21D;61102;51.956;5.878;2023-05-27T09:03:28;22.86;37.51
72952;HTU21D;61102;51.956;5.878;2023-05-27T09:05:55;22.88;37.60
72952;HTU21D;61102;51.956;5.878;2023-05-27T09:08:22;22.87;37.92
72952;HTU21D;61102;51.956;5.878;2023-05-27T09:10:48;23.00;38.08
72952;HTU21D;61102;51.956;5.878;2023-05-27T09:13:25;23.14;37.88
72952;HTU21D;61102;51.956;5.878;2023-05-27T09:15:58;23.21;37.67
72952;HTU21D;61102;51.956;5.878;2023-05-27T09:18:26;23.20;37.24
72952;HTU21D;61102;51.956;5.878;2023-05-27T09:20:54;23.21;37.30
72952;HTU21D;61102;51.956;5.878;2023-05-27T09:23:21;23.22;37.28
72952;HTU21D;61102;51.956;5.878;2023-05-27T09:25:47;23.26;37.40
72952;HTU21D;61102;51.956;5.878;2023-05-27T09:28:24;23.39;37.50
72952;HTU21D;61102;51.956;5.878;2023-05-27T09:30:58;23.50;37.01
72952;HTU21D;61102;51.956;5.878;2023-05-27T09:33:26;23.65;36.76
72952;HTU21D;61102;51.956;5.878;2023-05-27T09:36:10;24.21;35.16
72952;HTU21D;61102;51.956;5.878;2023-05-27T09:38:37;23.95;35.95
72952;HTU21D;61102;51.956;5.878;2023-05-27T09:41:04;23.98;36.02
72952;HTU21D;61102;51.956;5.878;2023-05-27T09:43:30;24.03;36.08
72952;HTU21D;61102;51.956;5.878;2023-05-27T09:46:03;24.16;36.03
72952;HTU21D;61102;51.956;5.878;2023-05-27T09:48:34;24.30;35.44
72952;HTU21D;61102;51.956;5.878;2023-05-27T09:51:01;24.36;35.03
72952;HTU21D;61102;51.956;5.878;2023-05-27T09:53:29;24.50;35.39
72952;HTU21D;61102;51.956;5.878;2023-05-27T09:55:57;24.63;35.04
72952;HTU21D;61102;51.956;5.878;2023-05-27T09:58:23;25.24;33.98
72952;HTU21D;61102;51.956;5.878;2023-05-27T10:00:50;24.92;34.30
72952;HTU21D;61102;51.956;5.878;2023-05-27T10:03:20;24.94;34.32
72952;HTU21D;61102;51.956;5.878;2023-05-27T10:05:50;25.03;34.10
72952;HTU21D;61102;51.956;5.878;2023-05-27T10:08:20;25.05;33.79
72952;HTU21D;61102;51.956;5.878;2023-05-27T10:10:46;25.12;33.99
72952;HTU21D;61102;51.956;5.878;2023-05-27T10:13:18;25.20;34.09
72952;HTU21D;61102;51.956;5.878;2023-05-27T10:15:50;25.18;32.90
72952;HTU21D;61102;51.956;5.878;2023-05-27T10:18:26;25.14;33.15
72952;HTU21D;61102;51.956;5.878;2023-05-27T10:20:53;25.16;32.89
72952;HTU21D;61102;51.956;5.878;2023-05-27T10:26:14;25.19;32.35
72952;HTU21D;61102;51.956;5.878;2023-05-27T10:28:40;25.21;31.73
72952;HTU21D;61102;51.956;5.878;2023-05-27T10:31:19;25.13;32.38
72952;HTU21D;61102;51.956;5.878;2023-05-27T10:33:48;25.21;32.66
72952;HTU21D;61102;51.956;5.878;2023-05-27T10:36:25;25.34;32.28
72952;HTU21D;61102;51.956;5.878;2023-05-27T10:41:54;25.79;31.77
72952;HTU21D;61102;51.956;5.878;2023-05-27T10:44:29;25.83;31.70
72952;HTU21D;61102;51.956;5.878;2023-05-27T10:47:00;25.96;31.45
72952;HTU21D;61102;51.956;5.878;2023-05-27T10:49:32;26.02;31.22
72952;HTU21D;61102;51.956;5.878;2023-05-27T10:52:19;26.06;31.61
72952;HTU21D;61102;51.956;5.878;2023-05-27T10:54:49;26.18;31.13
72952;HTU21D;61102;51.956;5.878;2023-05-27T10:57:18;26.19;30.98
72952;HTU21D;61102;51.956;5.878;2023-05-27T10:59:53;26.09;30.84
72952;HTU21D;61102;51.956;5.878;2023-05-27T11:02:20;26.11;30.57
72952;HTU21D;61102;51.956;5.878;2023-05-27T11:04:48;26.05;30.78
72952;HTU21D;61102;51.956;5.878;2023-05-27T11:07:18;26.02;30.28
72952;HTU21D;61102;51.956;5.878;2023-05-27T11:09:47;26.01;30.29
72952;HTU21D;61102;51.956;5.878;2023-05-27T11:12:14;26.10;29.92
72952;HTU21D;61102;51.956;5.878;2023-05-27T11:14:49;26.21;29.69
72952;HTU21D;61102;51.956;5.878;2023-05-27T11:17:15;26.40;29.41
72952;HTU21D;61102;51.956;5.878;2023-05-27T11:19:42;26.49;28.84
72952;HTU21D;61102;51.956;5.878;2023-05-27T11:22:09;26.63;28.86
72952;HTU21D;61102;51.956;5.878;2023-05-27T11:24:36;26.80;29.06
72952;HTU21D;61102;51.956;5.878;2023-05-27T11:27:09;26.97;28.83
72952;HTU21D;61102;51.956;5.878;2023-05-27T11:29:40;27.15;27.78
72952;HTU21D;61102;51.956;5.878;2023-05-27T11:32:07;27.27;27.86
72952;HTU21D;61102;51.956;5.878;2023-05-27T11:34:34;27.29;27.33
72952;HTU21D;61102;51.956;5.878;2023-05-27T11:37:04;27.40;27.13
72952;HTU21D;61102;51.956;5.878;2023-05-27T11:39:31;27.58;27.20
72952;HTU21D;61102;51.956;5.878;2023-05-27T11:41:58;27.70;25.23
72952;HTU21D;61102;51.956;5.878;2023-05-27T11:44:25;27.72;25.88
72952;HTU21D;61102;51.956;5.878;2023-05-27T11:46:51;28.13;25.82
72952;HTU21D;61102;51.956;5.878;2023-05-27T11:49:19;28.27;26.06
72952;HTU21D;61102;51.956;5.878;2023-05-27T11:51:46;28.46;25.59
72952;HTU21D;61102;51.956;5.878;2023-05-27T11:54:20;28.53;25.13
72952;HTU21D;61102;51.956;5.878;2023-05-27T11:56:47;28.63;25.39
72952;HTU21D;61102;51.956;5.878;2023-05-27T11:59:14;28.80;25.00
72952;HTU21D;61102;51.956;5.878;2023-05-27T12:01:41;28.91;24.66
72952;HTU21D;61102;51.956;5.878;2023-05-27T12:04:08;28.97;24.14
72952;HTU21D;61102;51.956;5.878;2023-05-27T12:06:35;28.99;24.30
72952;HTU21D;61102;51.956;5.878;2023-05-27T12:09:04;29.07;23.71
72952;HTU21D;61102;51.956;5.878;2023-05-27T12:11:31;29.21;23.43
72952;HTU21D;61102;51.956;5.878;2023-05-27T12:13:57;29.32;23.15
72952;HTU21D;61102;51.956;5.878;2023-05-27T12:16:24;29.18;22.89
72952;HTU21D;61102;51.956;5.878;2023-05-27T12:18:51;29.27;23.12
72952;HTU21D;61102;51.956;5.878;2023-05-27T12:21:17;29.59;23.08
72952;HTU21D;61102;51.956;5.878;2023-05-27T12:23:46;29.87;22.74
72952;HTU21D;61102;51.956;5.878;2023-05-27T12:26:13;30.24;22.05
72952;HTU21D;61102;51.956;5.878;2023-05-27T12:28:43;30.13;21.79
72952;HTU21D;61102;51.956;5.878;2023-05-27T12:31:09;30.32;21.69
72952;HTU21D;61102;51.956;5.878;2023-05-27T12:33:35;30.54;21.58
72952;HTU21D;61102;51.956;5.878;2023-05-27T12:36:02;30.82;20.85
72952;HTU21D;61102;51.956;5.878;2023-05-27T12:38:31;30.94;20.84
72952;HTU21D;61102;51.956;5.878;2023-05-27T12:40:57;31.08;20.03
72952;HTU21D;61102;51.956;5.878;2023-05-27T12:43:24;31.19;20.28
72952;HTU21D;61102;51.956;5.878;2023-05-27T12:45:50;31.23;20.26
72952;HTU21D;61102;51.956;5.878;2023-05-27T12:48:18;31.36;19.91
72952;HTU21D;61102;51.956;5.878;2023-05-27T12:50:44;31.63;19.97
72952;HTU21D;61102;51.956;5.878;2023-05-27T12:53:10;31.98;19.70
72952;HTU21D;61102;51.956;5.878;2023-05-27T12:55:39;32.47;19.70
72952;HTU21D;61102;51.956;5.878;2023-05-27T12:58:05;33.02;19.18
72952;HTU21D;61102;51.956;5.878;2023-05-27T13:00:32;33.26;18.52
72952;HTU21D;61102;51.956;5.878;2023-05-27T13:03:00;33.33;18.35
72952;HTU21D;61102;51.956;5.878;2023-05-27T13:05:26;33.46;18.22
72952;HTU21D;61102;51.956;5.878;2023-05-27T13:08:01;33.61;18.04
72952;HTU21D;61102;51.956;5.878;2023-05-27T13:10:30;33.66;18.22
72952;HTU21D;61102;51.956;5.878;2023-05-27T13:12:58;33.83;17.99
72952;HTU21D;61102;51.956;5.878;2023-05-27T13:15:25;33.77;17.72
72952;HTU21D;61102;51.956;5.878;2023-05-27T13:17:51;33.78;17.48
72952;HTU21D;61102;51.956;5.878;2023-05-27T13:20:20;33.71;18.04
72952;HTU21D;61102;51.956;5.878;2023-05-27T13:22:47;33.79;17.90
72952;HTU21D;61102;51.956;5.878;2023-05-27T13:25:17;34.21;17.71
72952;HTU21D;61102;51.956;5.878;2023-05-27T13:27:43;34.44;17.64
72952;HTU21D;61102;51.956;5.878;2023-05-27T13:30:14;34.55;17.27
72952;HTU21D;61102;51.956;5.878;2023-05-27T13:32:42;34.68;17.14
72952;HTU21D;61102;51.956;5.878;2023-05-27T13:35:09;34.78;16.87
72952;HTU21D;61102;51.956;5.878;2023-05-27T13:37:38;34.44;16.38
72952;HTU21D;61102;51.956;5.878;2023-05-27T13:40:06;34.17;16.74
72952;HTU21D;61102;51.956;5.878;2023-05-27T13:42:34;34.39;16.96
72952;HTU21D;61102;51.956;5.878;2023-05-27T13:45:00;34.75;16.71
72952;HTU21D;61102;51.956;5.878;2023-05-27T13:47:30;35.16;16.40
72952;HTU21D;61102;51.956;5.878;2023-05-27T13:49:56;35.55;16.08
72952;HTU21D;61102;51.956;5.878;2023-05-27T13:52:22;35.64;15.06
72952;HTU21D;61102;51.956;5.878;2023-05-27T13:54:49;35.49;15.05
72952;HTU21D;61102;51.956;5.878;2023-05-27T13:57:15;35.44;15.30
72952;HTU21D;61102;51.956;5.878;2023-05-27T13:59:41;35.50;15.31
72952;HTU21D;61102;51.956;5.878;2023-05-27T14:02:08;35.53;15.12
72952;HTU21D;61102;51.956;5.878;2023-05-27T14:04:35;35.45;15.01
72952;HTU21D;61102;51.956;5.878;2023-05-27T14:07:02;35.18;14.79
72952;HTU21D;61102;51.956;5.878;2023-05-27T14:09:31;34.98;15.33
72952;HTU21D;61102;51.956;5.878;2023-05-27T14:11:57;34.93;15.54
72952;HTU21D;61102;51.956;5.878;2023-05-27T14:14:24;34.89;15.49
72952;HTU21D;61102;51.956;5.878;2023-05-27T14:16:50;34.62;16.13
72952;HTU21D;61102;51.956;5.878;2023-05-27T14:19:21;33.42;17.43
72952;HTU21D;61102;51.956;5.878;2023-05-27T14:21:48;32.26;18.31
72952;HTU21D;61102;51.956;5.878;2023-05-27T14:24:14;31.00;19.50
72952;HTU21D;61102;51.956;5.878;2023-05-27T14:26:41;30.39;20.20
72952;HTU21D;61102;51.956;5.878;2023-05-27T14:29:09;29.24;21.51
72952;HTU21D;61102;51.956;5.878;2023-05-27T14:31:35;28.49;22.42
72952;HTU21D;61102;51.956;5.878;2023-05-27T14:34:02;28.03;23.21
72952;HTU21D;61102;51.956;5.878;2023-05-27T14:36:28;27.72;23.88
72952;HTU21D;61102;51.956;5.878;2023-05-27T14:38:54;27.51;24.22
72952;HTU21D;61102;51.956;5.878;2023-05-27T14:41:20;27.25;24.45
72952;HTU21D;61102;51.956;5.878;2023-05-27T14:43:47;27.04;24.94
72952;HTU21D;61102;51.956;5.878;2023-05-27T14:46:16;26.94;24.97
72952;HTU21D;61102;51.956;5.878;2023-05-27T14:48:42;26.77;25.10
72952;HTU21D;61102;51.956;5.878;2023-05-27T14:51:09;26.64;24.92
72952;HTU21D;61102;51.956;5.878;2023-05-27T14:53:35;26.56;25.29
72952;HTU21D;61102;51.956;5.878;2023-05-27T14:56:01;26.50;25.72
72952;HTU21D;61102;51.956;5.878;2023-05-27T14:58:27;26.48;25.92
72952;HTU21D;61102;51.956;5.878;2023-05-27T15:00:53;26.42;26.11
72952;HTU21D;61102;51.956;5.878;2023-05-27T15:03:20;26.41;26.36
72952;HTU21D;61102;51.956;5.878;2023-05-27T15:05:46;26.42;26.44
72952;HTU21D;61102;51.956;5.878;2023-05-27T15:08:12;26.37;26.11
72952;HTU21D;61102;51.956;5.878;2023-05-27T15:10:43;26.26;26.14
72952;HTU21D;61102;51.956;5.878;2023-05-27T15:13:09;26.22;26.42
72952;HTU21D;61102;51.956;5.878;2023-05-27T15:15:37;26.18;26.21
72952;HTU21D;61102;51.956;5.878;2023-05-27T15:18:06;26.12;26.04
72952;HTU21D;61102;51.956;5.878;2023-05-27T15:20:33;26.13;26.05
72952;HTU21D;61102;51.956;5.878;2023-05-27T15:23:00;26.16;25.95
72952;HTU21D;61102;51.956;5.878;2023-05-27T15:25:26;26.09;26.07
72952;HTU21D;61102;51.956;5.878;2023-05-27T15:27:55;26.08;26.17
72952;HTU21D;61102;51.956;5.878;2023-05-27T15:30:22;26.08;26.17
72952;HTU21D;61102;51.956;5.878;2023-05-27T15:32:48;26.03;26.26
72952;HTU21D;61102;51.956;5.878;2023-05-27T15:35:14;26.02;26.33
72952;HTU21D;61102;51.956;5.878;2023-05-27T15:37:40;25.98;26.30